< < Back
Terminal Aerodrome Forecast


Current Version              Previous Versions:   1  2  3  4  5  6  7  8  9  

Terminal Aerodrome Forecast

124
FTUS42 KTAE 292322
TAFVLD
TAF
KVLD 292322Z 3000/3024 00000KT P6SM SKC
     FM301500 26007G15KT P6SM SCT050 PROB30 3020/3024 VRB15G25KT 3SM
      TSRA BKN035CB=

Latest METAR

288
SAUS70 KWBC 300000 RRD
MTRVLD
METAR KVLD 292353Z 00000KT 10SM CLR 13/03 A3030 RMK AO2 SLP271 T01280033
10189 20128 53001


USA.gov is the U.S. government's official web portal to all federal, state and local government web resources and services.